createdAt,value
2022-11-05T00:06:54.700Z,60
2022-11-05T00:16:54.782Z,72
2022-11-05T00:26:55.236Z,70
2022-11-05T00:36:55.534Z,69
2022-11-05T00:46:59.704Z,42
2022-11-05T00:56:58.316Z,51
2022-11-05T01:06:57.267Z,50
2022-11-05T01:16:58.166Z,53
2022-11-05T01:26:58.600Z,66
2022-11-05T01:36:59.166Z,86
2022-11-05T01:46:59.512Z,67
2022-11-05T01:56:59.833Z,73
2022-11-05T02:06:59.971Z,70
2022-11-05T02:17:01.531Z,67
2022-11-05T02:27:01.260Z,72
2022-11-05T02:37:02.255Z,70
2022-11-05T02:57:03.234Z,83
2022-11-05T03:07:03.300Z,24
2022-11-05T03:17:03.796Z,91
2022-11-05T03:27:04.700Z,47
2022-11-05T03:37:05.379Z,61
2022-11-05T03:47:06.348Z,56
2022-11-05T04:07:07.710Z,72
2022-11-05T04:17:08.300Z,60
2022-11-05T04:27:08.719Z,62
2022-11-05T04:37:08.870Z,59
2022-11-05T04:47:08.976Z,49
2022-11-05T04:57:09.463Z,70
2022-11-05T05:07:10.453Z,45
2022-11-05T05:17:10.570Z,70
2022-11-05T05:27:10.655Z,54
2022-11-05T05:37:10.846Z,76
2022-11-05T05:47:11.288Z,35
2022-11-05T05:57:12.078Z,62
2022-11-05T06:07:12.328Z,68
2022-11-05T06:17:13.355Z,47
2022-11-05T06:27:14.265Z,71
2022-11-05T06:37:14.404Z,57
2022-11-05T06:47:15.178Z,59
2022-11-05T06:57:15.905Z,70
2022-11-05T07:07:16.331Z,82
2022-11-05T07:17:16.723Z,67
2022-11-05T07:27:16.986Z,71
2022-11-05T07:37:17.216Z,55
2022-11-05T07:47:17.930Z,41
2022-11-05T07:57:18.569Z,54
2022-11-05T08:07:19.583Z,68
2022-11-05T08:17:20.391Z,70
2022-11-05T08:27:21.246Z,99
2022-11-05T08:37:21.804Z,100
2022-11-05T08:47:22.539Z,0
2022-11-05T08:57:22.917Z,22
2022-11-05T09:07:23.687Z,7
2022-11-05T09:27:24.898Z,67
2022-11-05T09:47:26.773Z,0
2022-11-05T09:57:27.756Z,0
2022-11-05T10:07:28.199Z,0
2022-11-05T10:17:28.922Z,0
2022-11-05T10:27:29.579Z,0
2022-11-05T10:37:30.513Z,23
2022-11-05T10:47:30.762Z,47
2022-11-05T10:57:31.486Z,53
2022-11-05T11:07:32.021Z,56
2022-11-05T11:17:32.489Z,65
2022-11-05T11:27:32.889Z,61
2022-11-05T11:37:33.587Z,62
2022-11-05T11:47:34.623Z,66
2022-11-05T11:57:35.429Z,74
2022-11-05T12:07:36.064Z,88
2022-11-05T12:17:36.127Z,91
2022-11-05T12:27:36.174Z,92
2022-11-05T12:37:36.667Z,84
2022-11-05T12:47:37.388Z,76
2022-11-05T12:57:38.253Z,66
2022-11-05T13:07:38.785Z,67
2022-11-05T13:17:39.334Z,65
2022-11-05T13:27:39.944Z,56
2022-11-05T13:37:40.869Z,53
2022-11-05T13:47:41.492Z,50
2022-11-05T13:57:42.278Z,64
2022-11-05T14:07:42.362Z,55
2022-11-05T14:17:43.044Z,66
2022-11-05T14:27:43.201Z,59
2022-11-05T14:37:43.582Z,69
2022-11-05T14:47:43.779Z,66
2022-11-05T14:57:44.541Z,68
2022-11-05T15:07:45.123Z,65
2022-11-05T15:17:45.697Z,60
2022-11-05T15:27:46.373Z,55
2022-11-05T15:37:51.714Z,56
2022-11-05T15:47:46.819Z,50
2022-11-05T15:57:50.605Z,49
2022-11-05T16:07:48.663Z,44
2022-11-05T16:17:48.632Z,38
2022-11-05T16:27:49.641Z,39
2022-11-05T16:37:52.157Z,33
2022-11-05T16:47:51.360Z,39
2022-11-05T16:57:52.384Z,39
2022-11-05T17:07:53.358Z,40
2022-11-05T17:17:53.576Z,52
2022-11-05T17:37:53.682Z,53
2022-11-05T17:47:53.992Z,57
2022-11-05T17:57:54.847Z,58
2022-11-05T18:07:55.437Z,58
2022-11-05T18:17:55.694Z,60
2022-11-05T18:27:55.774Z,63
2022-11-05T18:37:56.147Z,59
2022-11-05T18:47:56.796Z,56
2022-11-05T18:57:57.026Z,50
2022-11-05T19:07:57.627Z,43
2022-11-05T19:17:57.922Z,41
2022-11-05T19:27:58.533Z,35
2022-11-05T19:37:59.528Z,33
2022-11-05T19:48:00.549Z,24
2022-11-05T19:58:01.223Z,16
2022-11-05T20:08:01.870Z,17
2022-11-05T20:18:02.243Z,12
2022-11-05T20:28:02.747Z,14
2022-11-05T20:38:03.590Z,17
2022-11-05T20:48:04.045Z,15
2022-11-05T20:58:04.436Z,12
2022-11-05T21:08:05.419Z,19
2022-11-05T21:18:06.072Z,17
2022-11-05T21:28:06.194Z,19
2022-11-05T21:38:06.222Z,18
2022-11-05T21:48:06.629Z,15
2022-11-05T21:58:06.988Z,11
2022-11-05T22:08:07.879Z,3
2022-11-05T22:18:08.330Z,0
2022-11-05T22:28:08.790Z,0
2022-11-05T22:38:09.609Z,0
2022-11-05T22:38:31.274Z,0
2022-11-05T22:48:15.234Z,0
2022-11-05T22:58:15.748Z,0
2022-11-05T23:08:16.172Z,0
2022-11-05T23:18:16.139Z,0
2022-11-05T23:28:17.054Z,0
2022-11-05T23:38:17.690Z,0
2022-11-05T23:48:18.374Z,0
2022-11-05T23:58:19.322Z,0
